Time;durP1;ratioP1;P1;durP2;ratioP2;P2;SDS_P1;SDS_P2;PMS_P1;PMS_P2;Temp;Humidity;BMP_temperature;BMP_pressure;BME280_temperature;BME280_humidity;BME280_pressure;Samples;Min_cycle;Max_cycle;Signal;HPM_P1;HPM_P2
2021/09/30 00:02:14;;;;;;;0.00;0.00;;;11.90;99.90;;;;;;5056598;28;20112;-84
2021/09/30 00:04:40;;;;;;;0.70;0.70;;;12.00;99.90;;;;;;5063634;28;20028;-83
2021/09/30 00:07:07;;;;;;;0.00;0.00;;;11.90;99.90;;;;;;5062116;28;20024;-84
2021/09/30 00:09:35;;;;;;;0.10;0.10;;;11.90;99.90;;;;;;5051973;28;20021;-84
2021/09/30 00:12:08;;;;;;;1.83;0.88;;;11.90;99.90;;;;;;5059736;28;20078;-83
2021/09/30 00:17:29;;;;;;;0.00;0.00;;;11.90;99.90;;;;;;5065398;28;20032;-84
2021/09/30 00:33:46;;;;;;;6.70;0.43;;;11.80;99.90;;;;;;5055300;28;20522;-84
2021/09/30 00:49:51;;;;;;;0.00;0.00;;;11.80;99.90;;;;;;5063970;28;20036;-84
2021/09/30 00:52:26;;;;;;;0.08;0.08;;;11.80;99.90;;;;;;5063167;28;20437;-84
2021/09/30 00:55:15;;;;;;;0.00;0.00;;;11.80;99.90;;;;;;5052793;28;20035;-84
2021/09/30 01:28:06;;;;;;;0.20;0.20;;;11.60;99.90;;;;;;5053701;28;20112;-83
2021/09/30 01:33:06;;;;;;;0.32;0.32;;;11.50;99.90;;;;;;5062892;28;20052;-84
2021/09/30 01:52:02;;;;;;;0.00;0.00;;;11.40;99.90;;;;;;5065947;28;20070;-84
2021/09/30 02:20:06;;;;;;;0.03;0.03;;;11.20;99.90;;;;;;5051545;28;20556;-82
2021/09/30 02:25:50;;;;;;;0.08;0.08;;;11.10;99.90;;;;;;4982188;28;20470;-83
2021/09/30 02:28:38;;;;;;;0.30;0.30;;;11.10;99.90;;;;;;5051788;28;20082;-84
2021/09/30 02:58:48;;;;;;;0.10;0.10;;;11.00;99.90;;;;;;5057064;28;20074;-84
2021/09/30 03:01:17;;;;;;;0.05;0.05;;;10.90;99.90;;;;;;5055731;28;20454;-84
2021/09/30 03:03:44;;;;;;;0.52;0.52;;;10.90;99.90;;;;;;5059034;28;20032;-84
2021/09/30 03:06:10;;;;;;;0.00;0.00;;;11.00;99.90;;;;;;5055288;28;20020;-83
2021/09/30 03:08:44;;;;;;;0.00;0.00;;;11.00;99.90;;;;;;5062993;28;20078;-83
2021/09/30 03:11:10;;;;;;;0.00;0.00;;;11.00;99.90;;;;;;5059250;28;20020;-84
2021/09/30 03:13:38;;;;;;;0.00;0.00;;;11.00;99.90;;;;;;5060254;28;20124;-83
2021/09/30 03:16:11;;;;;;;0.70;0.30;;;11.00;99.90;;;;;;5059977;28;20021;-81
2021/09/30 03:23:36;;;;;;;0.10;0.10;;;11.10;99.90;;;;;;5062664;28;20127;-84
2021/09/30 03:26:03;;;;;;;0.00;0.00;;;11.10;99.90;;;;;;5065445;28;20023;-83
2021/09/30 03:28:31;;;;;;;0.03;0.03;;;11.10;99.90;;;;;;5061756;28;20025;-82
2021/09/30 03:30:58;;;;;;;0.20;0.20;;;11.10;99.90;;;;;;5057694;28;20024;-84
2021/09/30 03:33:25;;;;;;;0.17;0.17;;;11.10;99.90;;;;;;5064782;28;20025;-83
2021/09/30 03:35:51;;;;;;;0.08;0.08;;;11.10;99.90;;;;;;5061943;28;20029;-84
2021/09/30 03:38:18;;;;;;;0.10;0.10;;;11.10;99.90;;;;;;5063108;28;20039;-84
2021/09/30 03:40:43;;;;;;;1.55;0.85;;;11.10;99.90;;;;;;5061125;28;20085;-84
2021/09/30 03:43:10;;;;;;;1.95;1.13;;;11.00;99.90;;;;;;5059718;28;20029;-84
2021/09/30 03:45:36;;;;;;;0.08;0.08;;;11.00;99.90;;;;;;5055260;28;20033;-84
2021/09/30 03:48:02;;;;;;;0.03;0.03;;;11.10;99.90;;;;;;5055655;28;20028;-84
2021/09/30 03:50:36;;;;;;;0.20;0.17;;;11.00;99.90;;;;;;5050250;28;20502;-83
2021/09/30 03:55:54;;;;;;;0.52;0.52;;;11.00;99.90;;;;;;5067741;28;20536;-85
2021/09/30 04:01:04;;;;;;;0.10;0.10;;;11.00;99.90;;;;;;5062562;28;20039;-82
2021/09/30 04:03:29;;;;;;;0.03;0.03;;;11.00;99.90;;;;;;5066445;28;20033;-83
2021/09/30 04:05:55;;;;;;;0.10;0.10;;;11.10;99.90;;;;;;5061997;28;20046;-84
2021/09/30 04:08:20;;;;;;;0.00;0.00;;;11.10;99.90;;;;;;5059913;28;20021;-83
2021/09/30 04:10:46;;;;;;;0.00;0.00;;;11.00;99.90;;;;;;5059407;28;20499;-84
2021/09/30 04:13:11;;;;;;;0.00;0.00;;;11.10;99.90;;;;;;5061550;28;20533;-84
2021/09/30 04:15:37;;;;;;;0.00;0.00;;;11.00;99.90;;;;;;5065400;28;20033;-84
2021/09/30 04:18:02;;;;;;;0.20;0.20;;;11.00;99.90;;;;;;5064514;28;20098;-82
2021/09/30 04:20:28;;;;;;;0.00;0.00;;;11.00;99.90;;;;;;5062072;28;20102;-84
2021/09/30 04:22:54;;;;;;;0.00;0.00;;;11.10;99.90;;;;;;5055643;28;20025;-84
2021/09/30 04:25:19;;;;;;;0.15;0.15;;;11.00;99.90;;;;;;5058993;28;20029;-84
2021/09/30 04:27:45;;;;;;;0.00;0.00;;;11.10;99.90;;;;;;5057634;28;20450;-84
2021/09/30 04:30:11;;;;;;;0.10;0.10;;;11.10;99.90;;;;;;5059569;28;20021;-85
2021/09/30 04:32:36;;;;;;;0.45;0.40;;;11.10;99.90;;;;;;5064215;28;20090;-83
2021/09/30 04:35:03;;;;;;;0.32;0.32;;;11.10;99.90;;;;;;5062076;28;20025;-84
2021/09/30 04:37:28;;;;;;;0.00;0.00;;;11.10;99.90;;;;;;5055730;28;20483;-85
2021/09/30 04:39:54;;;;;;;0.05;0.05;;;11.10;99.90;;;;;;5058317;28;20025;-85
2021/09/30 04:42:19;;;;;;;0.00;0.00;;;11.10;99.90;;;;;;5061349;28;20130;-84
2021/09/30 04:44:45;;;;;;;0.00;0.00;;;11.10;99.90;;;;;;5056773;28;20048;-84
2021/09/30 04:47:10;;;;;;;0.10;0.10;;;11.10;99.90;;;;;;5059810;28;20055;-84
2021/09/30 04:49:36;;;;;;;19.17;0.70;;;11.10;99.90;;;;;;5052348;28;20040;-84
2021/09/30 04:52:01;;;;;;;0.45;0.45;;;11.10;99.90;;;;;;5056988;28;20029;-85
2021/09/30 04:54:27;;;;;;;0.00;0.00;;;11.10;99.90;;;;;;5051923;28;20028;-84
2021/09/30 04:56:52;;;;;;;0.00;0.00;;;11.10;99.90;;;;;;5055190;28;20040;-85
2021/09/30 04:59:18;;;;;;;1.33;0.75;;;11.10;99.90;;;;;;5058477;28;20052;-84
2021/09/30 05:01:43;;;;;;;0.10;0.10;;;11.10;99.90;;;;;;5063932;28;20064;-84
2021/09/30 05:04:09;;;;;;;0.10;0.10;;;11.10;99.90;;;;;;5065294;28;20410;-85
2021/09/30 05:06:34;;;;;;;0.00;0.00;;;11.10;99.90;;;;;;5061913;28;20052;-84
2021/09/30 05:09:01;;;;;;;0.00;0.00;;;11.10;99.90;;;;;;5053173;28;20035;-84
2021/09/30 05:11:32;;;;;;;0.15;0.15;;;11.20;99.90;;;;;;5060069;28;20126;-85
2021/09/30 05:13:58;;;;;;;0.10;0.10;;;11.20;99.90;;;;;;5060037;28;20032;-84
2021/09/30 05:16:24;;;;;;;0.25;0.22;;;11.30;99.90;;;;;;5063206;28;20055;-84
2021/09/30 05:18:53;;;;;;;0.38;0.38;;;11.40;99.90;;;;;;5059950;28;20090;-85
2021/09/30 05:21:19;;;;;;;0.00;0.00;;;11.40;99.90;;;;;;5058754;28;20861;-86
2021/09/30 05:23:44;;;;;;;0.32;0.32;;;11.40;99.90;;;;;;5060333;28;20132;-88
2021/09/30 05:26:30;;;;;;;0.00;0.00;;;11.50;99.90;;;;;;5064392;28;20029;-88
2021/09/30 05:28:57;;;;;;;0.00;0.00;;;11.50;99.90;;;;;;5058100;28;20028;-88
2021/09/30 05:31:22;;;;;;;8.77;0.80;;;11.60;99.90;;;;;;5051036;28;20052;-86
2021/09/30 05:33:48;;;;;;;0.13;0.13;;;11.60;99.90;;;;;;5065866;28;20109;-85
2021/09/30 05:36:13;;;;;;;0.25;0.25;;;11.60;99.90;;;;;;5060230;28;20029;-86
2021/09/30 05:38:39;;;;;;;0.00;0.00;;;11.70;99.90;;;;;;5059541;28;20494;-85
2021/09/30 05:41:05;;;;;;;9.63;1.35;;;11.70;99.90;;;;;;5063466;28;20238;-72
2021/09/30 05:43:34;;;;;;;0.10;0.10;;;11.70;99.90;;;;;;5066936;28;20114;-73
2021/09/30 05:46:00;;;;;;;0.10;0.10;;;11.70;99.90;;;;;;5066015;28;20669;-72
2021/09/30 05:48:27;;;;;;;1.00;0.17;;;11.70;99.90;;;;;;5068017;28;20395;-73
2021/09/30 05:50:53;;;;;;;0.00;0.00;;;11.70;99.90;;;;;;5062801;28;20021;-74
2021/09/30 05:53:19;;;;;;;0.00;0.00;;;11.70;99.90;;;;;;5062169;28;20442;-73
2021/09/30 05:55:48;;;;;;;3.17;0.82;;;11.70;99.90;;;;;;5068367;28;20111;-73
2021/09/30 05:58:14;;;;;;;0.08;0.08;;;11.70;99.90;;;;;;5054156;28;20068;-72
2021/09/30 06:09:15;;;;;;;0.10;0.10;;;11.80;99.90;;;;;;5063106;28;20024;-72
2021/09/30 06:11:45;;;;;;;0.65;0.65;;;11.80;99.90;;;;;;5056972;28;20025;-73
2021/09/30 06:14:17;;;;;;;;;;;11.80;99.90;;;;;;5049449;28;20013;-72
2021/09/30 06:16:47;;;;;;;0.38;0.38;;;11.80;99.90;;;;;;5057999;28;20438;-71
2021/09/30 06:19:19;;;;;;;0.40;0.40;;;11.80;99.90;;;;;;5062183;28;20525;-71
2021/09/30 06:21:49;;;;;;;0.82;0.80;;;11.80;99.90;;;;;;5054996;28;20049;-72
2021/09/30 06:24:17;;;;;;;0.10;0.10;;;11.80;99.90;;;;;;5046372;28;20035;-72
2021/09/30 06:26:42;;;;;;;0.17;0.17;;;11.80;99.90;;;;;;5064121;28;20636;-72
2021/09/30 06:29:08;;;;;;;0.65;0.65;;;11.80;99.90;;;;;;5063228;28;20517;-72
2021/09/30 06:31:33;;;;;;;0.15;0.15;;;11.90;99.90;;;;;;5058645;28;20021;-71
2021/09/30 06:33:59;;;;;;;0.35;0.20;;;11.90;99.90;;;;;;5060107;28;20078;-72
2021/09/30 06:36:25;;;;;;;0.00;0.00;;;11.90;99.90;;;;;;5062867;28;20048;-72
2021/09/30 06:38:50;;;;;;;0.40;0.40;;;11.90;99.90;;;;;;5060290;28;20047;-72
2021/09/30 06:41:15;;;;;;;0.00;0.00;;;11.90;99.90;;;;;;5053432;28;20025;-72
2021/09/30 06:43:41;;;;;;;0.28;0.28;;;11.90;99.90;;;;;;5050229;28;20386;-72
2021/09/30 06:46:06;;;;;;;0.10;0.10;;;12.00;99.90;;;;;;5052366;28;20028;-73
2021/09/30 06:48:32;;;;;;;0.05;0.05;;;12.00;99.90;;;;;;5056330;28;20775;-72
2021/09/30 06:50:57;;;;;;;0.63;0.45;;;12.10;99.90;;;;;;5052638;28;20094;-72
2021/09/30 06:53:23;;;;;;;0.05;0.03;;;12.10;99.90;;;;;;5060785;28;20035;-73
2021/09/30 06:55:49;;;;;;;0.10;0.10;;;12.10;99.90;;;;;;5055982;28;20028;-72
2021/09/30 06:58:14;;;;;;;0.00;0.00;;;12.10;99.90;;;;;;5053337;28;20110;-72
2021/09/30 07:00:41;;;;;;;0.00;0.00;;;12.10;99.90;;;;;;5054256;28;20032;-73
2021/09/30 07:03:07;;;;;;;0.85;0.75;;;12.10;99.90;;;;;;5057341;28;20395;-72
2021/09/30 07:05:33;;;;;;;0.10;0.10;;;12.10;99.90;;;;;;5057870;28;20021;-73
2021/09/30 07:08:05;;;;;;;1.60;0.43;;;12.20;99.90;;;;;;5059841;28;20023;-72
2021/09/30 07:10:30;;;;;;;;;;;12.10;99.90;;;;;;5052293;28;20119;-72
2021/09/30 07:12:56;;;;;;;0.00;0.00;;;12.10;99.90;;;;;;5053913;28;19916;-71
2021/09/30 07:15:22;;;;;;;0.10;0.10;;;12.20;99.90;;;;;;5060555;28;20040;-71
2021/09/30 07:17:47;;;;;;;0.00;0.00;;;12.10;99.90;;;;;;5051288;28;20075;-70
2021/09/30 07:20:13;;;;;;;0.10;0.10;;;12.10;99.90;;;;;;5050217;28;20115;-70
2021/09/30 07:22:39;;;;;;;0.03;0.03;;;12.10;99.90;;;;;;5050876;28;20040;-71
2021/09/30 07:25:05;;;;;;;0.00;0.00;;;12.10;99.90;;;;;;5049035;28;20021;-71
2021/09/30 07:27:31;;;;;;;0.28;0.28;;;12.10;99.90;;;;;;5050854;28;20031;-70
2021/09/30 07:29:57;;;;;;;2.63;0.88;;;12.10;99.90;;;;;;5046191;28;20013;-71
2021/09/30 07:32:24;;;;;;;0.20;0.20;;;12.10;99.90;;;;;;5051814;28;20033;-71
2021/09/30 07:34:50;;;;;;;0.40;0.40;;;12.20;99.90;;;;;;5052260;28;20113;-71
2021/09/30 07:37:16;;;;;;;0.00;0.00;;;12.20;99.90;;;;;;5070021;28;20502;-72
2021/09/30 07:39:41;;;;;;;0.30;0.30;;;12.20;99.90;;;;;;5050058;28;20383;-71
2021/09/30 07:42:07;;;;;;;0.32;0.17;;;12.30;99.90;;;;;;5046048;28;20033;-72
2021/09/30 07:44:33;;;;;;;0.73;0.70;;;12.30;99.90;;;;;;5063593;28;20035;-72
2021/09/30 07:46:59;;;;;;;0.00;0.00;;;12.30;99.90;;;;;;5058009;28;20025;-73
2021/09/30 07:49:25;;;;;;;0.30;0.20;;;12.30;99.90;;;;;;5054192;28;20025;-72
2021/09/30 07:51:51;;;;;;;0.00;0.00;;;12.40;99.90;;;;;;5052938;28;20639;-72
2021/09/30 07:54:16;;;;;;;0.05;0.03;;;12.40;99.90;;;;;;5047665;28;20028;-72
2021/09/30 07:56:42;;;;;;;0.00;0.00;;;12.40;99.90;;;;;;5051049;28;20025;-72
2021/09/30 07:59:07;;;;;;;0.05;0.05;;;12.50;99.90;;;;;;5051662;28;20064;-72
2021/09/30 08:01:33;;;;;;;0.00;0.00;;;12.60;99.90;;;;;;5050325;28;20025;-73
2021/09/30 08:03:59;;;;;;;0.17;0.17;;;12.60;99.90;;;;;;5053173;28;20434;-72
2021/09/30 08:06:26;;;;;;;0.00;0.00;;;12.60;99.90;;;;;;5053220;28;20028;-72
2021/09/30 08:08:52;;;;;;;0.00;0.00;;;12.60;99.90;;;;;;5051941;28;20024;-73
2021/09/30 08:11:17;;;;;;;0.70;0.38;;;12.70;99.90;;;;;;5049476;28;20033;-72
2021/09/30 08:13:43;;;;;;;0.00;0.00;;;12.70;99.60;;;;;;5057124;28;20127;-72
2021/09/30 08:16:08;;;;;;;0.00;0.00;;;12.80;99.70;;;;;;5064955;28;20038;-73
2021/09/30 08:18:34;;;;;;;0.85;0.82;;;12.90;99.50;;;;;;5060423;28;20136;-72
2021/09/30 08:21:00;;;;;;;0.05;0.05;;;12.90;99.10;;;;;;5064109;28;20119;-73
2021/09/30 08:23:25;;;;;;;0.03;0.03;;;13.00;99.10;;;;;;5059139;28;20122;-73
2021/09/30 08:25:51;;;;;;;0.13;0.13;;;13.10;98.60;;;;;;5061381;28;20116;-72
2021/09/30 08:28:20;;;;;;;0.80;0.22;;;13.10;98.60;;;;;;5053394;28;20029;-72
2021/09/30 08:30:46;;;;;;;1.17;0.20;;;13.20;97.90;;;;;;5051087;28;20017;-72
2021/09/30 08:33:12;;;;;;;0.55;0.50;;;13.20;97.70;;;;;;5053210;28;20039;-72
2021/09/30 08:35:38;;;;;;;0.00;0.00;;;13.20;97.60;;;;;;5058518;28;20032;-73
2021/09/30 08:38:05;;;;;;;0.00;0.00;;;13.30;97.60;;;;;;5054513;28;20028;-73
2021/09/30 08:40:32;;;;;;;0.00;0.00;;;13.40;97.70;;;;;;5051213;28;20061;-73
2021/09/30 08:42:58;;;;;;;0.10;0.10;;;13.40;97.30;;;;;;5052576;28;20549;-70
2021/09/30 08:45:24;;;;;;;0.00;0.00;;;13.50;96.50;;;;;;5059873;28;20037;-71
2021/09/30 08:48:04;;;;;;;0.10;0.10;;;13.50;96.90;;;;;;5054687;28;20593;-71
2021/09/30 08:50:38;;;;;;;3.15;0.65;;;13.50;96.40;;;;;;5048645;28;20029;-71
2021/09/30 08:53:06;;;;;;;0.00;0.00;;;13.50;96.50;;;;;;5058937;28;20128;-71
2021/09/30 08:55:31;;;;;;;0.10;0.10;;;13.50;96.50;;;;;;5059883;28;20546;-70
2021/09/30 08:57:57;;;;;;;0.00;0.00;;;13.50;96.30;;;;;;5066986;28;20053;-71
2021/09/30 09:00:22;;;;;;;0.13;0.13;;;13.60;96.50;;;;;;5060883;28;20111;-71
2021/09/30 09:02:50;;;;;;;0.10;0.10;;;13.60;96.50;;;;;;5060039;28;20218;-71
2021/09/30 09:05:17;;;;;;;0.30;0.30;;;13.60;96.20;;;;;;5062608;28;20020;-71
2021/09/30 09:07:53;;;;;;;0.45;0.20;;;13.60;96.20;;;;;;5067723;28;20449;-71
2021/09/30 09:10:21;;;;;;;0.10;0.10;;;13.70;96.10;;;;;;5060814;28;20043;-71
2021/09/30 09:13:07;;;;;;;0.10;0.10;;;13.70;95.50;;;;;;5066348;28;20028;-71
2021/09/30 09:15:45;;;;;;;0.00;0.00;;;13.70;95.70;;;;;;5064123;28;20035;-71
2021/09/30 09:18:17;;;;;;;0.50;0.40;;;13.70;95.60;;;;;;5063093;28;20479;-71
2021/09/30 09:20:44;;;;;;;;;;;13.60;95.80;;;;;;5062721;28;20043;-71
2021/09/30 09:23:10;;;;;;;0.68;0.38;;;13.50;95.70;;;;;;5058854;28;20665;-70
2021/09/30 09:25:36;;;;;;;0.63;0.63;;;13.40;96.00;;;;;;5062834;28;20615;-71
2021/09/30 09:28:03;;;;;;;0.10;0.10;;;13.40;96.30;;;;;;5063361;28;20033;-70
2021/09/30 09:30:55;;;;;;;0.30;0.30;;;13.30;96.40;;;;;;5062566;28;20086;-70
2021/09/30 09:33:25;;;;;;;0.03;0.03;;;13.20;96.40;;;;;;5049506;28;20037;-71
2021/09/30 09:36:02;;;;;;;0.40;0.20;;;13.10;97.10;;;;;;5066946;28;20303;-71
2021/09/30 09:38:42;;;;;;;1.92;0.47;;;13.10;96.80;;;;;;5064181;28;20039;-71
2021/09/30 09:41:09;;;;;;;0.00;0.00;;;13.10;97.20;;;;;;5061375;28;20040;-69
2021/09/30 09:43:40;;;;;;;0.30;0.30;;;13.10;97.50;;;;;;5066663;28;20028;-70
2021/09/30 09:46:07;;;;;;;1.35;1.00;;;13.20;97.60;;;;;;5062321;28;20378;-70
2021/09/30 09:48:33;;;;;;;0.03;0.03;;;13.40;97.60;;;;;;5063571;28;20284;-71
2021/09/30 09:51:02;;;;;;;0.82;0.75;;;13.50;97.10;;;;;;5059611;28;20032;-70
2021/09/30 09:53:31;;;;;;;0.10;0.10;;;13.60;96.10;;;;;;5054367;28;20107;-69
2021/09/30 09:56:11;;;;;;;0.20;0.20;;;13.60;96.00;;;;;;5061724;28;20032;-70
2021/09/30 09:58:44;;;;;;;0.32;0.20;;;13.70;96.50;;;;;;5059201;28;20052;-70
2021/09/30 10:01:09;;;;;;;0.28;0.28;;;13.90;96.60;;;;;;5056803;28;20345;-70
2021/09/30 10:03:35;;;;;;;0.32;0.32;;;14.00;96.10;;;;;;5058779;28;21007;-70
2021/09/30 10:06:04;;;;;;;0.55;0.43;;;14.20;95.50;;;;;;5054701;28;20040;-70
2021/09/30 10:08:31;;;;;;;1.27;0.70;;;14.40;95.00;;;;;;5067381;28;20032;-69
2021/09/30 10:10:57;;;;;;;0.47;0.47;;;14.60;93.80;;;;;;5055819;28;20425;-70
2021/09/30 10:13:25;;;;;;;0.20;0.20;;;14.80;92.90;;;;;;5048388;28;20085;-70
2021/09/30 10:15:54;;;;;;;0.05;0.05;;;14.90;92.80;;;;;;5059968;28;20506;-69
2021/09/30 10:18:25;;;;;;;0.13;0.13;;;15.10;91.60;;;;;;5064812;28;20264;-70
2021/09/30 10:20:52;;;;;;;0.32;0.30;;;15.20;92.30;;;;;;5063739;28;20085;-70
2021/09/30 10:23:23;;;;;;;0.00;0.00;;;15.30;92.30;;;;;;5056457;28;20040;-70
2021/09/30 10:25:51;;;;;;;1.02;0.20;;;15.40;91.70;;;;;;5063814;28;20024;-70
2021/09/30 10:28:17;;;;;;;0.00;0.00;;;15.60;90.70;;;;;;5058663;28;20021;-70
2021/09/30 10:30:44;;;;;;;0.38;0.25;;;15.70;90.50;;;;;;5059483;28;20021;-72
2021/09/30 10:33:12;;;;;;;0.22;0.22;;;15.90;90.40;;;;;;5058232;28;20029;-72
2021/09/30 10:35:44;;;;;;;0.10;0.10;;;16.10;90.10;;;;;;5063999;28;20134;-72
2021/09/30 10:38:29;;;;;;;1.02;0.85;;;16.10;88.90;;;;;;5049803;28;20133;-73
2021/09/30 10:41:09;;;;;;;0.20;0.20;;;16.10;87.50;;;;;;5049621;28;20053;-72
2021/09/30 10:43:44;;;;;;;0.08;0.08;;;16.20;87.60;;;;;;5058624;28;20025;-70
2021/09/30 10:46:41;;;;;;;0.20;0.20;;;16.30;85.80;;;;;;5064994;28;20029;-69
2021/09/30 10:49:36;;;;;;;0.63;0.63;;;16.50;83.70;;;;;;5049732;28;20036;-70
2021/09/30 10:52:12;;;;;;;0.10;0.10;;;16.50;83.80;;;;;;5061117;28;20067;-70
2021/09/30 10:54:49;;;;;;;2.05;0.32;;;16.60;82.80;;;;;;5066498;28;20032;-70
2021/09/30 10:57:33;;;;;;;0.00;0.00;;;16.60;82.20;;;;;;5065866;28;20088;-69
2021/09/30 10:59:59;;;;;;;0.30;0.30;;;16.80;81.70;;;;;;5042650;28;20044;-69
2021/09/30 11:02:25;;;;;;;0.00;0.00;;;16.90;79.00;;;;;;5034748;28;20059;-69
2021/09/30 11:05:06;;;;;;;5.47;0.65;;;16.90;79.70;;;;;;5035993;28;20570;-70
2021/09/30 11:07:32;;;;;;;0.47;0.47;;;16.90;78.10;;;;;;5039649;28;20028;-69
2021/09/30 11:10:15;;;;;;;0.30;0.30;;;17.00;78.60;;;;;;5035534;28;20033;-70
2021/09/30 11:13:16;;;;;;;0.55;0.55;;;16.80;79.50;;;;;;5032323;28;20090;-69
2021/09/30 11:16:02;;;;;;;2.20;0.47;;;16.70;78.40;;;;;;5039539;28;20113;-70
2021/09/30 11:18:54;;;;;;;0.47;0.45;;;16.50;79.40;;;;;;5038523;28;20033;-70
2021/09/30 11:21:38;;;;;;;0.00;0.00;;;16.40;80.60;;;;;;5038264;28;20124;-70
2021/09/30 11:24:06;;;;;;;0.20;0.10;;;16.40;80.80;;;;;;5036356;28;20029;-70
2021/09/30 11:26:33;;;;;;;0.10;0.10;;;16.30;79.70;;;;;;5036693;28;20416;-69
2021/09/30 11:29:21;;;;;;;0.43;0.43;;;16.20;81.30;;;;;;5037295;28;20037;-70
2021/09/30 11:32:09;;;;;;;0.08;0.08;;;16.10;81.70;;;;;;5037997;28;20107;-70
2021/09/30 11:34:45;;;;;;;0.22;0.10;;;16.00;81.70;;;;;;5031365;28;20237;-70
2021/09/30 11:37:16;;;;;;;0.43;0.43;;;16.00;81.20;;;;;;5036429;28;20618;-70
2021/09/30 11:39:43;;;;;;;0.20;0.20;;;16.00;82.80;;;;;;5042191;28;20085;-70
2021/09/30 11:42:08;;;;;;;0.10;0.10;;;15.90;82.40;;;;;;5039425;28;20064;-70
2021/09/30 11:44:34;;;;;;;0.20;0.20;;;15.90;83.00;;;;;;5037331;28;20507;-70
2021/09/30 11:47:00;;;;;;;0.20;0.20;;;15.90;83.50;;;;;;5038084;28;20041;-71
2021/09/30 11:49:26;;;;;;;0.40;0.20;;;15.80;84.40;;;;;;5037963;28;20036;-70
2021/09/30 11:51:56;;;;;;;0.30;0.30;;;15.70;85.20;;;;;;5039964;28;20278;-69
2021/09/30 11:54:24;;;;;;;0.17;0.10;;;15.70;84.10;;;;;;5038165;28;20716;-71
2021/09/30 11:56:56;;;;;;;0.30;0.30;;;15.60;85.00;;;;;;5032125;28;20116;-70
2021/09/30 11:59:23;;;;;;;0.10;0.10;;;15.60;85.60;;;;;;5056716;28;20050;-70
2021/09/30 12:01:54;;;;;;;0.30;0.30;;;15.70;84.90;;;;;;5064030;28;20040;-70
2021/09/30 12:04:38;;;;;;;0.17;0.17;;;15.90;85.00;;;;;;5060018;28;20040;-70
2021/09/30 12:07:04;;;;;;;0.03;0.03;;;16.20;83.80;;;;;;5057913;28;20021;-71
2021/09/30 12:09:34;;;;;;;0.35;0.35;;;16.60;82.60;;;;;;5051637;28;20056;-70
2021/09/30 12:12:03;;;;;;;0.20;0.20;;;16.80;81.20;;;;;;5056551;28;20075;-70
2021/09/30 12:14:37;;;;;;;0.10;0.10;;;16.80;80.80;;;;;;5058613;28;20382;-70
2021/09/30 12:17:12;;;;;;;0.10;0.10;;;17.30;79.90;;;;;;5062333;28;20085;-71
2021/09/30 12:19:44;;;;;;;0.20;0.20;;;17.90;77.00;;;;;;5058049;28;20023;-70
2021/09/30 12:22:17;;;;;;;0.28;0.28;;;18.40;75.80;;;;;;5056742;28;20035;-70
2021/09/30 12:24:50;;;;;;;0.30;0.20;;;18.90;75.50;;;;;;5060217;28;20032;-70
2021/09/30 12:27:16;;;;;;;0.00;0.00;;;19.10;69.40;;;;;;5058995;28;20017;-70
2021/09/30 12:29:47;;;;;;;0.10;0.10;;;19.20;68.30;;;;;;5058254;28;20502;-71
2021/09/30 12:32:16;;;;;;;0.10;0.10;;;19.40;68.40;;;;;;5057580;28;20506;-70
2021/09/30 12:34:53;;;;;;;0.25;0.25;;;19.60;66.70;;;;;;5063772;28;20040;-70
2021/09/30 12:37:26;;;;;;;0.20;0.20;;;19.80;66.20;;;;;;5059744;28;20111;-71
2021/09/30 12:39:59;;;;;;;5.22;0.85;;;19.60;65.20;;;;;;5056050;28;20025;-72
2021/09/30 12:42:25;;;;;;;0.57;0.47;;;19.50;63.60;;;;;;5058368;28;20048;-69
2021/09/30 12:44:50;;;;;;;0.10;0.10;;;19.30;63.40;;;;;;5053382;28;20581;-70
2021/09/30 12:47:38;;;;;;;7.10;1.45;;;19.10;64.30;;;;;;5060445;28;20048;-70
2021/09/30 12:50:10;;;;;;;0.10;0.10;;;18.70;66.20;;;;;;5057612;28;20048;-69
2021/09/30 12:52:37;;;;;;;0.25;0.25;;;18.40;66.10;;;;;;5057579;28;20047;-70
2021/09/30 12:55:18;;;;;;;3.60;0.40;;;18.20;68.10;;;;;;5060109;28;20055;-69
2021/09/30 12:57:44;;;;;;;9.35;1.08;;;18.40;68.60;;;;;;5062873;28;20036;-71
2021/09/30 13:00:17;;;;;;;23.67;0.68;;;18.70;66.30;;;;;;5059335;28;20511;-70
2021/09/30 13:02:42;;;;;;;1.33;0.68;;;19.10;64.90;;;;;;5049465;28;20062;-70
2021/09/30 13:05:09;;;;;;;0.30;0.30;;;19.50;63.40;;;;;;5054478;28;20052;-71
2021/09/30 13:07:57;;;;;;;0.52;0.52;;;20.20;63.70;;;;;;5058476;28;20028;-71
2021/09/30 13:10:32;;;;;;;0.32;0.32;;;20.60;59.60;;;;;;5053377;28;20494;-72
2021/09/30 13:13:14;;;;;;;0.88;0.57;;;20.50;58.70;;;;;;5050679;28;20032;-70
2021/09/30 13:15:44;;;;;;;0.10;0.10;;;20.60;59.00;;;;;;5054937;28;20025;-71
2021/09/30 13:18:13;;;;;;;0.65;0.55;;;20.40;59.20;;;;;;5055620;28;20089;-78
2021/09/30 13:20:41;;;;;;;0.17;0.17;;;20.30;60.60;;;;;;5050832;28;20064;-76
2021/09/30 13:23:07;;;;;;;0.10;0.10;;;20.30;59.10;;;;;;5031249;28;20036;-75
2021/09/30 13:25:33;;;;;;;0.15;0.15;;;20.00;59.20;;;;;;5055298;28;20033;-68
2021/09/30 13:27:58;;;;;;;0.10;0.10;;;20.40;58.20;;;;;;5029187;28;20033;-70
2021/09/30 13:30:30;;;;;;;0.22;0.22;;;21.10;55.90;;;;;;5051838;28;20044;-71
2021/09/30 13:32:59;;;;;;;0.10;0.10;;;21.80;54.20;;;;;;5050592;28;20060;-71
2021/09/30 13:35:27;;;;;;;0.55;0.32;;;22.40;53.00;;;;;;5049337;28;20037;-70
2021/09/30 13:37:54;;;;;;;0.15;0.05;;;22.90;51.30;;;;;;5054135;28;20391;-69
2021/09/30 13:40:21;;;;;;;0.20;0.20;;;23.00;50.90;;;;;;5060752;28;20028;-69
2021/09/30 13:42:47;;;;;;;0.00;0.00;;;23.20;50.50;;;;;;5058198;28;20111;-68
2021/09/30 13:45:15;;;;;;;0.17;0.17;;;23.40;49.60;;;;;;5056017;28;20103;-70
2021/09/30 13:47:40;;;;;;;0.20;0.20;;;23.50;48.40;;;;;;5060478;28;20494;-70
2021/09/30 13:50:16;;;;;;;0.17;0.10;;;23.60;48.70;;;;;;5057281;28;20040;-70
2021/09/30 13:52:44;;;;;;;0.52;0.35;;;24.00;48.00;;;;;;5052035;28;20033;-71
2021/09/30 13:55:11;;;;;;;0.20;0.20;;;24.30;48.10;;;;;;5058208;28;20085;-70
2021/09/30 13:57:37;;;;;;;0.00;0.00;;;24.30;45.50;;;;;;5060382;28;20033;-70
2021/09/30 14:00:06;;;;;;;0.10;0.10;;;24.20;45.60;;;;;;5060746;28;20020;-70
2021/09/30 14:02:32;;;;;;;0.45;0.45;;;23.80;45.90;;;;;;5058493;28;20142;-70
2021/09/30 14:04:58;;;;;;;0.65;0.57;;;23.00;47.70;;;;;;5058385;28;20032;-71
2021/09/30 14:07:24;;;;;;;1.10;0.50;;;22.70;49.70;;;;;;5054504;28;20024;-71
2021/09/30 14:09:49;;;;;;;0.47;0.32;;;23.00;48.60;;;;;;5053520;28;20021;-71
2021/09/30 14:12:15;;;;;;;0.40;0.40;;;23.30;47.60;;;;;;5053910;28;20068;-71
2021/09/30 14:14:40;;;;;;;0.20;0.20;;;23.70;46.80;;;;;;5049342;28;20024;-71
2021/09/30 14:17:06;;;;;;;0.00;0.00;;;24.00;46.60;;;;;;5051480;28;20081;-72
2021/09/30 14:19:32;;;;;;;2.30;0.55;;;24.20;45.50;;;;;;5054766;28;21526;-71
2021/09/30 14:21:58;;;;;;;0.90;0.73;;;24.20;45.90;;;;;;5059333;28;20020;-70
2021/09/30 14:24:24;;;;;;;0.00;0.00;;;24.20;45.50;;;;;;5054776;28;20035;-69
2021/09/30 14:26:50;;;;;;;0.10;0.10;;;23.70;46.20;;;;;;5038642;28;20427;-70
2021/09/30 14:29:16;;;;;;;0.20;0.20;;;23.50;46.90;;;;;;5054631;28;20032;-71
2021/09/30 14:31:41;;;;;;;0.10;0.10;;;23.80;46.00;;;;;;5059687;28;20123;-71
2021/09/30 14:34:07;;;;;;;0.05;0.05;;;24.00;45.10;;;;;;5056320;28;20903;-71
2021/09/30 14:36:33;;;;;;;0.20;0.20;;;23.90;47.20;;;;;;5062153;28;20453;-71
2021/09/30 14:38:59;;;;;;;0.00;0.00;;;23.40;45.60;;;;;;5059024;28;20036;-70
2021/09/30 14:41:24;;;;;;;0.20;0.20;;;22.90;45.90;;;;;;5054358;28;20115;-69
2021/09/30 14:43:50;;;;;;;0.10;0.08;;;22.30;47.90;;;;;;5054596;28;20020;-71
2021/09/30 14:46:19;;;;;;;0.43;0.35;;;21.40;49.70;;;;;;5051462;28;20028;-70
2021/09/30 14:48:45;;;;;;;0.10;0.10;;;20.80;51.20;;;;;;5057005;28;20458;-70
2021/09/30 14:51:11;;;;;;;0.20;0.20;;;20.20;52.50;;;;;;5057167;28;20017;-70
2021/09/30 14:53:38;;;;;;;0.20;0.20;;;19.80;53.70;;;;;;5056396;28;20029;-73
2021/09/30 14:56:05;;;;;;;0.50;0.50;;;19.60;54.70;;;;;;5060327;28;20086;-70
2021/09/30 14:58:32;;;;;;;8.38;0.45;;;19.70;54.00;;;;;;5059645;28;20503;-71
2021/09/30 15:00:57;;;;;;;0.10;0.10;;;19.90;54.80;;;;;;5058287;28;20036;-71
2021/09/30 15:03:23;;;;;;;0.10;0.10;;;20.10;54.50;;;;;;5054520;28;20082;-70
2021/09/30 15:05:48;;;;;;;0.00;0.00;;;20.00;54.00;;;;;;5059291;28;20036;-70
2021/09/30 15:08:17;;;;;;;0.35;0.32;;;19.90;54.20;;;;;;5055015;28;20024;-73
2021/09/30 15:10:43;;;;;;;0.35;0.35;;;19.90;54.60;;;;;;5047815;28;20024;-75
2021/09/30 15:13:08;;;;;;;0.10;0.10;;;20.00;55.00;;;;;;5053923;28;20039;-73
2021/09/30 15:15:35;;;;;;;0.17;0.15;;;20.10;54.40;;;;;;5056860;28;20098;-75
2021/09/30 15:18:03;;;;;;;0.00;0.00;;;20.40;54.20;;;;;;5060636;28;20056;-75
2021/09/30 15:23:10;;;;;;;3.28;0.28;;;21.10;53.00;;;;;;5045051;28;20118;-73
2021/09/30 15:25:38;;;;;;;2.67;0.80;;;21.50;52.90;;;;;;5062984;28;20033;-74
2021/09/30 15:28:06;;;;;;;0.10;0.10;;;21.80;52.50;;;;;;5059697;28;20094;-73
2021/09/30 15:30:33;;;;;;;0.10;0.10;;;22.10;51.10;;;;;;5058310;28;20419;-71
2021/09/30 15:32:59;;;;;;;0.22;0.22;;;22.30;49.70;;;;;;5058999;28;20163;-70
2021/09/30 15:35:24;;;;;;;0.00;0.00;;;22.20;49.60;;;;;;5060733;28;20492;-71